Main page
METAR-TAF:

METAR-TAF

Airports :

Bristol Airport

Bristol, England

latitude: 51-23N, longitude: 002-43W, elevation: 189 m

Current weather observation

The report was made 29 minutes ago, at 21:50 UTC
Wind 5 kt from the West
Temperature 1°C
Humidity 93%
Pressure 998 hPa
Visibility 10 km or more
Broken clouds at a height of 4500 ft

METAR: EGGD 222150Z AUTO 26005KT 9999 BKN045 01/00 Q0998

Time: 22:19 (22:19 UTC)

Forecast

The report was made 5 hours and 16 minutes ago, at 17:03 UTC
Forecast valid from 22 at 18 UTC to 23 at 18 UTC
Wind 9 kt from the West/Southwest
Visibility 10 km or more
Scattered clouds at a height of 2000 ft
Probability 30% :
Temporary
from 22 at 18 UTC to 23 at 03 UTC
Visibility: 3000 m
Broken clouds at a height of 300 ft
light snow showers, rain showers, snow

TAF: EGGD 221703Z 2218/2318 25009KT 9999 SCT020 PROB30 TEMPO 2218/2303 3000 -SHSN SHRASN BKN003

Weather observations and forecasts of more than 4000 airports (METAR and TAF reports).

The available stations are represented by yellow and red dots on the map.

Hover mouse over dot to see the name of the station.

Then click to see weather observations and forecasts.

To change the map : click on the green buttons with a black cross to zoom in, on the green button with a dash to zoom out, or on the green arrows for adjacent maps.


METAR-TAF: